Time;durP1;ratioP1;P1;durP2;ratioP2;P2;SDS_P1;SDS_P2;PMS_P1;PMS_P2;Temp;Humidity;BMP_temperature;BMP_pressure;BME280_temperature;BME280_humidity;BME280_pressure;Samples;Min_cycle;Max_cycle;Signal;HPM_P1;HPM_P2
2020/12/25 00:00:26;;;;;;;0.78;0.53;;;;;;;4.41;78.83;99460.53;1764686;79;21151;-42
2020/12/25 00:02:53;;;;;;;0.80;0.65;;;;;;;4.40;78.83;99453.09;1767975;79;21161;-41
2020/12/25 00:05:21;;;;;;;1.95;1.37;;;;;;;4.41;78.91;99460.09;1767722;80;21116;-42
2020/12/25 00:07:48;;;;;;;1.30;0.70;;;;;;;4.41;78.88;99456.58;1759674;80;21616;-42
2020/12/25 00:10:16;;;;;;;0.65;0.60;;;;;;;4.40;79.38;99453.09;1800420;78;21165;-44
2020/12/25 00:12:44;;;;;;;0.82;0.55;;;;;;;4.42;79.02;99442.00;1785935;79;21124;-43
2020/12/25 00:15:12;;;;;;;1.20;0.90;;;;;;;4.44;79.03;99440.14;1766355;79;21153;-44
2020/12/25 00:17:39;;;;;;;1.12;0.85;;;;;;;4.45;79.08;99429.11;1779591;79;21162;-42
2020/12/25 00:20:07;;;;;;;1.35;0.98;;;;;;;4.45;79.09;99429.95;1787641;78;21093;-43
2020/12/25 00:22:36;;;;;;;1.00;0.70;;;;;;;4.45;79.11;99431.75;1811303;77;21173;-43
2020/12/25 00:25:03;;;;;;;0.90;0.70;;;;;;;4.48;79.08;99426.31;1803271;77;21113;-44
2020/12/25 00:27:31;;;;;;;0.90;0.68;;;;;;;4.47;79.11;99425.45;1772839;79;21149;-42
2020/12/25 00:29:58;;;;;;;1.77;0.90;;;;;;;4.49;79.13;99427.56;1764892;79;21930;-42
2020/12/25 00:32:26;;;;;;;1.30;0.82;;;;;;;4.49;79.14;99421.44;1755803;80;21677;-43
2020/12/25 00:34:53;;;;;;;1.17;0.60;;;;;;;4.48;79.17;99423.67;1783304;78;21182;-43
2020/12/25 00:37:23;;;;;;;0.85;0.55;;;;;;;4.47;79.18;99417.54;1773674;79;21583;-43
2020/12/25 00:39:50;;;;;;;0.78;0.60;;;;;;;4.45;79.24;99423.35;1770686;79;21169;-43
2020/12/25 00:42:18;;;;;;;0.95;0.50;;;;;;;4.48;79.30;99428.95;1793197;79;21177;-44
2020/12/25 00:44:46;;;;;;;0.42;0.40;;;;;;;4.48;79.30;99436.39;1794179;78;21169;-43
2020/12/25 00:47:13;;;;;;;1.12;0.80;;;;;;;4.51;79.30;99442.88;1772443;78;21145;-41
2020/12/25 00:49:41;;;;;;;1.17;0.90;;;;;;;4.54;79.29;99445.34;1784696;78;21153;-42
2020/12/25 00:52:09;;;;;;;0.50;0.30;;;;;;;4.57;79.25;99436.89;1766415;78;21153;-41
2020/12/25 00:54:36;;;;;;;1.55;0.80;;;;;;;4.59;79.24;99447.77;1794243;77;21168;-42
2020/12/25 00:57:05;;;;;;;1.10;0.62;;;;;;;4.60;79.26;99444.18;1776433;79;21425;-43
2020/12/25 00:59:40;;;;;;;0.65;0.40;;;;;;;4.64;79.19;99442.26;1779333;78;21153;-41
2020/12/25 01:02:07;;;;;;;1.00;0.62;;;;;;;4.66;79.17;99444.33;1767038;79;21178;-45
2020/12/25 01:04:35;;;;;;;0.55;0.55;;;;;;;4.68;79.14;99439.83;1780038;79;21680;-42
2020/12/25 01:07:06;;;;;;;1.10;0.75;;;;;;;4.70;79.13;99432.69;1777453;78;21934;-41
2020/12/25 01:09:34;;;;;;;0.82;0.62;;;;;;;4.72;79.07;99425.08;1776032;79;21168;-43
2020/12/25 01:12:02;;;;;;;1.40;0.90;;;;;;;4.76;79.02;99432.36;1778168;78;21225;-43
2020/12/25 01:14:30;;;;;;;1.22;0.90;;;;;;;4.77;78.99;99416.92;1777917;78;21112;-41
2020/12/25 01:16:57;;;;;;;0.88;0.70;;;;;;;4.79;78.96;99409.78;1784689;78;21133;-40
2020/12/25 01:19:26;;;;;;;0.70;0.60;;;;;;;4.80;78.94;99398.27;1769064;79;21168;-41
2020/12/25 01:21:53;;;;;;;1.12;0.95;;;;;;;4.82;78.93;99395.08;1781266;78;21152;-42
2020/12/25 01:24:21;;;;;;;1.77;0.85;;;;;;;4.86;78.87;99388.69;1771636;79;21217;-43
2020/12/25 01:26:49;;;;;;;1.42;0.80;;;;;;;4.85;78.89;99382.19;1779364;78;21206;-43
2020/12/25 01:29:16;;;;;;;1.15;0.80;;;;;;;4.86;78.87;99381.23;1775470;78;21171;-43
2020/12/25 01:31:44;;;;;;;2.25;0.82;;;;;;;4.84;78.86;99382.66;1788211;78;21184;-43
2020/12/25 01:34:14;;;;;;;1.17;0.88;;;;;;;4.87;78.86;99389.56;1777219;78;21153;-43
2020/12/25 01:36:41;;;;;;;1.70;1.07;;;;;;;4.91;78.87;99384.48;1772091;78;21132;-42
2020/12/25 01:39:08;;;;;;;0.98;0.88;;;;;;;4.92;78.84;99387.54;1773476;79;21905;-44
2020/12/25 01:41:36;;;;;;;1.60;1.00;;;;;;;4.92;78.85;99380.46;1780460;78;21510;-44
2020/12/25 01:44:03;;;;;;;1.47;1.05;;;;;;;4.94;78.88;99382.56;1778846;78;21238;-44
2020/12/25 01:46:31;;;;;;;1.47;1.02;;;;;;;4.96;78.91;99385.98;1774623;78;21153;-44
2020/12/25 01:48:59;;;;;;;1.55;1.37;;;;;;;4.99;78.88;99392.42;1771673;78;21170;-43
2020/12/25 01:51:26;;;;;;;1.65;1.10;;;;;;;5.01;78.92;99388.36;1771599;78;21159;-43
2020/12/25 01:53:54;;;;;;;2.37;1.20;;;;;;;5.02;78.93;99392.73;1782195;78;21156;-45
2020/12/25 01:56:21;;;;;;;1.87;1.47;;;;;;;5.04;78.93;99391.30;1751570;78;21137;-45
2020/12/25 01:58:49;;;;;;;2.12;1.30;;;;;;;5.05;78.94;99385.10;1787248;78;21141;-45
2020/12/25 02:01:16;;;;;;;2.87;1.82;;;;;;;5.06;78.94;99383.68;1776834;78;21144;-44
2020/12/25 02:03:44;;;;;;;2.83;1.55;;;;;;;5.06;78.99;99385.00;1758800;78;21201;-42
2020/12/25 02:06:12;;;;;;;3.60;1.98;;;;;;;5.06;79.01;99382.36;1747544;79;21145;-44
2020/12/25 02:08:39;;;;;;;2.47;1.50;;;;;;;5.06;79.45;99385.48;1724805;80;21671;-43
2020/12/25 02:11:07;;;;;;;2.02;1.47;;;;;;;5.07;79.32;99387.20;1803555;77;21597;-43
2020/12/25 02:13:35;;;;;;;3.17;2.02;;;;;;;5.07;79.27;99382.77;1752005;79;21137;-45
2020/12/25 02:16:03;;;;;;;3.65;2.20;;;;;;;5.09;79.29;99380.02;1771210;78;21173;-46
2020/12/25 02:18:37;;;;;;;2.60;1.87;;;;;;;5.09;79.29;99382.66;1809088;77;21184;-42
2020/12/25 02:21:05;;;;;;;3.35;2.30;;;;;;;5.07;79.31;99375.31;1800170;77;21652;-44
2020/12/25 02:23:32;;;;;;;2.92;1.85;;;;;;;5.10;79.33;99390.52;1800754;77;21464;-43
2020/12/25 02:26:00;;;;;;;2.27;1.80;;;;;;;5.12;79.31;99382.05;1805708;77;21865;-43
2020/12/25 02:28:27;;;;;;;2.40;1.82;;;;;;;5.16;79.33;99384.05;1809863;78;21617;-43
2020/12/25 02:30:55;;;;;;;3.30;2.17;;;;;;;5.16;79.31;99380.08;1801618;78;21621;-43
2020/12/25 02:33:24;;;;;;;3.75;2.20;;;;;;;5.18;79.33;99377.74;1810486;78;21114;-41
2020/12/25 02:35:53;;;;;;;3.25;2.17;;;;;;;5.17;79.29;99372.08;1786608;79;21111;-45
2020/12/25 02:38:21;;;;;;;3.65;2.42;;;;;;;5.18;79.35;99376.42;1772473;79;21165;-48
2020/12/25 02:40:48;;;;;;;3.52;2.25;;;;;;;5.19;79.35;99378.15;1791210;78;21117;-44
2020/12/25 02:43:16;;;;;;;3.42;2.45;;;;;;;5.21;79.39;99378.05;1779671;79;21598;-41
2020/12/25 02:45:44;;;;;;;5.20;2.62;;;;;;;5.21;79.41;99368.80;1758349;80;21148;-42
2020/12/25 02:48:11;;;;;;;3.85;2.50;;;;;;;5.25;79.44;99373.47;1758092;79;21138;-43
2020/12/25 02:50:39;;;;;;;4.65;3.10;;;;;;;5.28;79.42;99375.46;1778894;79;21133;-43
2020/12/25 02:53:07;;;;;;;4.95;3.17;;;;;;;5.29;79.41;99373.22;1777257;79;21305;-42
2020/12/25 02:55:34;;;;;;;5.85;3.70;;;;;;;5.30;79.38;99368.78;1788874;78;21166;-44
2020/12/25 02:58:02;;;;;;;5.12;3.12;;;;;;;5.32;79.38;99373.05;1766416;78;21101;-41
2020/12/25 03:00:30;;;;;;;6.25;3.80;;;;;;;5.34;79.37;99380.88;1769441;79;21573;-41
2020/12/25 03:02:58;;;;;;;6.05;3.52;;;;;;;5.34;79.35;99367.22;1768534;79;21652;-41
2020/12/25 03:05:28;;;;;;;6.12;3.50;;;;;;;5.32;79.39;99376.17;1766460;80;21197;-46
2020/12/25 03:07:55;;;;;;;5.55;4.05;;;;;;;5.33;79.40;99372.09;1767085;79;21174;-45
2020/12/25 03:10:23;;;;;;;6.42;4.03;;;;;;;5.33;79.41;99373.42;1796381;77;21164;-42
2020/12/25 03:12:50;;;;;;;6.67;4.12;;;;;;;5.34;79.55;99375.15;1776825;78;21100;-45
2020/12/25 03:15:18;;;;;;;7.37;4.65;;;;;;;5.37;79.54;99374.13;1780582;78;21172;-45
2020/12/25 03:17:45;;;;;;;6.92;3.95;;;;;;;5.37;79.54;99376.30;1773205;78;21145;-44
2020/12/25 03:20:13;;;;;;;6.87;4.45;;;;;;;5.36;79.59;99383.83;1755884;79;21150;-44
2020/12/25 03:22:40;;;;;;;8.40;5.05;;;;;;;5.36;79.58;99377.69;1804666;77;22165;-46
2020/12/25 03:25:10;;;;;;;6.97;4.58;;;;;;;5.37;79.58;99378.09;1774979;78;21148;-43
2020/12/25 03:27:38;;;;;;;7.60;4.50;;;;;;;5.39;79.59;99385.45;1772277;78;21632;-46
2020/12/25 03:30:05;;;;;;;7.45;4.87;;;;;;;5.40;79.63;99388.02;1772648;79;21611;-44
2020/12/25 03:32:33;;;;;;;8.20;5.12;;;;;;;5.40;79.65;99388.50;1777541;78;21172;-44
2020/12/25 03:35:00;;;;;;;7.33;4.87;;;;;;;5.41;79.64;99392.36;1772652;78;21145;-43
2020/12/25 03:37:28;;;;;;;8.30;5.95;;;;;;;5.44;79.62;99403.23;1775232;78;21148;-45
2020/12/25 03:39:55;;;;;;;10.53;6.10;;;;;;;5.45;79.60;99395.70;1775663;78;21149;-44
2020/12/25 03:42:23;;;;;;;9.43;5.78;;;;;;;5.47;79.64;99392.96;1786184;78;21152;-44
2020/12/25 03:44:54;;;;;;;9.80;6.40;;;;;;;5.47;79.62;99399.57;1786260;78;21148;-44
2020/12/25 03:47:24;;;;;;;9.78;5.40;;;;;;;5.47;79.61;99401.78;1775695;78;21157;-50
2020/12/25 03:49:53;;;;;;;9.78;6.03;;;;;;;5.49;79.60;99400.34;1770388;79;21177;-43
2020/12/25 03:52:21;;;;;;;12.65;7.28;;;;;;;5.50;79.61;99397.63;1763526;79;21176;-43
2020/12/25 03:54:49;;;;;;;11.83;7.22;;;;;;;5.50;79.63;99394.14;1763327;79;21137;-43
2020/12/25 03:57:16;;;;;;;10.88;7.00;;;;;;;5.52;79.63;99392.24;1768890;78;21169;-44
2020/12/25 03:59:44;;;;;;;9.13;6.15;;;;;;;5.54;79.59;99390.38;1783601;79;21164;-44
2020/12/25 04:02:11;;;;;;;11.80;6.75;;;;;;;5.55;79.56;99382.84;1759117;80;21180;-43
2020/12/25 04:04:39;;;;;;;11.15;7.17;;;;;;;5.56;79.57;99380.09;1792408;77;21582;-42
2020/12/25 04:07:07;;;;;;;11.20;6.95;;;;;;;5.58;79.56;99383.98;1764269;78;21201;-46
2020/12/25 04:09:36;;;;;;;11.12;6.90;;;;;;;5.59;79.53;99382.59;1761280;78;21113;-39
2020/12/25 04:12:04;;;;;;;10.80;7.50;;;;;;;5.61;79.51;99389.95;1757253;80;21204;-40
2020/12/25 04:14:31;;;;;;;11.35;8.10;;;;;;;5.60;79.50;99396.66;1759467;79;21141;-40
2020/12/25 04:16:59;;;;;;;11.80;7.80;;;;;;;5.60;79.48;99395.34;1803095;77;21136;-42
2020/12/25 04:19:26;;;;;;;11.55;6.85;;;;;;;5.61;79.52;99391.75;1761334;80;21587;-42
2020/12/25 04:21:53;;;;;;;11.57;8.03;;;;;;;5.62;79.52;99396.97;1775264;78;21158;-43
2020/12/25 04:24:21;;;;;;;12.47;6.37;;;;;;;5.64;79.48;99401.70;1784500;78;21693;-44
2020/12/25 04:26:49;;;;;;;13.18;8.68;;;;;;;5.66;79.44;99392.34;1768955;78;21153;-44
2020/12/25 04:29:16;;;;;;;11.60;7.33;;;;;;;5.69;79.42;99390.00;1757987;78;21146;-44
2020/12/25 04:31:44;;;;;;;15.35;9.58;;;;;;;5.70;79.39;99393.89;1770928;78;21175;-43
2020/12/25 04:34:11;;;;;;;12.53;8.00;;;;;;;5.72;79.35;99393.34;1780245;78;21136;-43
2020/12/25 04:36:39;;;;;;;12.82;8.60;;;;;;;5.76;79.31;99390.05;1780041;78;21176;-43
2020/12/25 04:39:07;;;;;;;14.55;9.23;;;;;;;5.79;79.23;99392.52;1773615;78;21124;-43
2020/12/25 04:41:35;;;;;;;16.52;9.38;;;;;;;5.79;79.21;99380.61;1775437;78;21179;-42
2020/12/25 04:44:04;;;;;;;11.75;8.88;;;;;;;5.82;79.16;99389.25;1785775;78;21157;-45
2020/12/25 04:46:32;;;;;;;14.73;9.53;;;;;;;5.84;79.15;99386.49;1784922;78;21148;-44
2020/12/25 04:49:00;;;;;;;15.65;10.93;;;;;;;5.84;79.10;99391.31;1791750;77;21160;-44
2020/12/25 04:51:27;;;;;;;14.95;10.63;;;;;;;5.85;79.07;99398.33;1790638;78;21145;-43
2020/12/25 04:53:55;;;;;;;15.48;10.28;;;;;;;5.86;79.08;99394.73;1781550;78;21152;-42
2020/12/25 04:56:23;;;;;;;16.30;10.55;;;;;;;5.88;79.06;99403.92;1779980;79;21673;-45
2020/12/25 04:58:51;;;;;;;15.53;9.68;;;;;;;5.89;79.01;99406.94;1770896;79;21641;-42
2020/12/25 05:01:19;;;;;;;15.70;11.20;;;;;;;5.91;79.03;99403.73;1766312;79;21174;-42
2020/12/25 05:03:47;;;;;;;17.25;10.82;;;;;;;5.92;79.00;99407.23;1809643;78;21476;-41
2020/12/25 05:06:17;;;;;;;15.60;11.03;;;;;;;5.94;78.98;99412.01;1813914;77;21180;-42
2020/12/25 05:08:51;;;;;;;20.77;14.90;;;;;;;5.98;78.99;99404.30;1776827;78;28079;-41
2020/12/25 05:11:20;;;;;;;18.37;13.40;;;;;;;5.95;79.00;99413.26;1767193;80;21125;-43
2020/12/25 05:13:52;;;;;;;18.52;12.07;;;;;;;6.04;78.89;99414.04;1769298;79;21584;-42
2020/12/25 05:16:22;;;;;;;19.67;14.07;;;;;;;6.06;78.81;99429.37;1766458;79;21431;-43
2020/12/25 05:18:52;;;;;;;21.35;14.30;;;;;;;6.05;78.84;99439.59;1772644;79;21129;-43
2020/12/25 05:21:21;;;;;;;22.77;14.53;;;;;;;6.07;78.78;99443.45;1762386;80;21149;-43
2020/12/25 05:23:49;;;;;;;18.37;13.20;;;;;;;6.08;78.78;99438.56;1762880;79;21656;-41
2020/12/25 05:26:17;;;;;;;19.32;14.45;;;;;;;6.09;78.79;99427.02;1744743;80;21164;-41
2020/12/25 05:28:48;;;;;;;19.82;13.15;;;;;;;6.11;78.75;99413.23;1747311;80;21141;-42
2020/12/25 05:31:19;;;;;;;19.40;13.85;;;;;;;6.11;78.74;99422.50;1737779;80;21635;-42
2020/12/25 05:33:50;;;;;;;16.30;11.95;;;;;;;6.11;78.79;99431.77;1740820;80;21151;-42
2020/12/25 05:36:18;;;;;;;20.90;13.98;;;;;;;6.12;78.75;99437.91;1740542;81;21534;-42
2020/12/25 05:38:49;;;;;;;19.27;13.18;;;;;;;6.11;78.79;99440.18;1752045;80;21615;-43
2020/12/25 05:41:17;;;;;;;19.57;13.30;;;;;;;6.12;78.79;99443.20;1750564;80;21132;-44
2020/12/25 05:43:49;;;;;;;22.85;13.95;;;;;;;6.13;78.84;99448.42;1743686;81;21133;-43
2020/12/25 05:46:17;;;;;;;18.17;13.55;;;;;;;6.16;78.81;99452.69;1751041;81;21164;-42
2020/12/25 05:48:51;;;;;;;20.17;13.70;;;;;;;6.17;78.81;99459.20;1749421;80;21133;-42
2020/12/25 05:51:21;;;;;;;19.37;13.48;;;;;;;6.20;78.80;99460.81;1749129;81;21124;-41
2020/12/25 05:53:49;;;;;;;22.62;14.95;;;;;;;6.19;78.78;99446.73;1748208;80;21628;-41
2020/12/25 05:56:17;;;;;;;19.30;13.15;;;;;;;6.20;78.80;99448.46;1714521;81;21168;-41
2020/12/25 05:58:45;;;;;;;20.90;16.00;;;;;;;6.22;78.80;99458.95;1729573;80;21632;-41
2020/12/25 06:01:13;;;;;;;21.37;14.33;;;;;;;6.24;78.80;99459.72;1722257;81;21140;-44
2020/12/25 06:03:40;;;;;;;30.88;22.17;;;;;;;6.24;78.81;99472.48;1727181;82;21592;-44
2020/12/25 06:06:13;;;;;;;25.45;18.87;;;;;;;6.26;78.89;99469.28;1739995;80;21157;-42
2020/12/25 06:08:59;;;;;;;22.30;15.40;;;;;;;6.28;78.93;99470.05;1737426;80;21153;-42
2020/12/25 06:11:30;;;;;;;20.48;14.60;;;;;;;6.29;78.94;99470.91;1730309;81;21142;-41
2020/12/25 06:13:58;;;;;;;21.93;14.65;;;;;;;6.32;78.88;99476.49;1728811;81;21138;-45
2020/12/25 06:16:27;;;;;;;21.75;15.43;;;;;;;6.35;78.81;99482.93;1725561;81;21177;-43
2020/12/25 06:19:15;;;;;;;21.15;16.12;;;;;;;6.35;78.88;99476.31;1729450;81;21118;-44
2020/12/25 06:21:56;;;;;;;23.35;14.73;;;;;;;6.36;78.84;99484.18;1740328;81;21268;-44
2020/12/25 06:24:34;;;;;;;20.53;14.03;;;;;;;6.38;78.88;99486.28;1725286;81;21153;-44
2020/12/25 06:27:03;;;;;;;20.95;14.13;;;;;;;6.41;78.89;99486.58;1732991;81;21660;-43
2020/12/25 06:29:31;;;;;;;18.57;14.65;;;;;;;6.44;78.79;99491.69;1712982;82;21165;-45
2020/12/25 06:32:00;;;;;;;25.30;16.07;;;;;;;6.44;78.74;99491.21;1737177;82;21178;-43
2020/12/25 06:34:45;;;;;;;22.27;15.83;;;;;;;6.45;78.71;99477.05;1731257;81;21173;-41
2020/12/25 06:37:16;;;;;;;22.58;15.38;;;;;;;6.44;78.67;99476.64;1733366;81;21137;-41
2020/12/25 06:39:53;;;;;;;30.43;21.73;;;;;;;6.47;78.60;99476.94;1731909;81;21628;-41
2020/12/25 06:42:33;;;;;;;25.08;15.58;;;;;;;6.49;78.53;99491.80;1730425;81;21541;-42
2020/12/25 06:45:09;;;;;;;25.15;15.43;;;;;;;6.51;78.51;99502.33;1735349;81;21141;-42
2020/12/25 06:47:39;;;;;;;21.48;14.30;;;;;;;6.52;78.48;99511.12;1733761;81;21137;-43
2020/12/25 06:50:14;;;;;;;18.70;13.43;;;;;;;6.52;78.50;99516.41;1730327;81;21146;-42
2020/12/25 06:52:55;;;;;;;18.80;13.48;;;;;;;6.56;78.48;99514.83;1726698;81;21133;-44
2020/12/25 06:55:23;;;;;;;;;;;;;;;6.56;78.48;99518.80;1730154;81;21146;-43
2020/12/25 06:57:54;;;;;;;17.87;12.40;;;;;;;6.56;78.52;99514.83;1732470;81;20759;-42
2020/12/25 07:00:23;;;;;;;;;;;;;;;6.56;78.56;99514.83;1742454;81;21142;-43
2020/12/25 07:02:53;;;;;;;15.80;11.90;;;;;;;6.56;78.62;99512.19;1732566;81;20176;-44
2020/12/25 07:05:23;;;;;;;15.80;11.95;;;;;;;6.59;78.59;99513.33;1727372;81;21150;-42
2020/12/25 07:07:52;;;;;;;20.88;13.58;;;;;;;6.61;78.59;99515.42;1743051;81;21121;-43
2020/12/25 07:10:19;;;;;;;22.82;15.30;;;;;;;6.61;78.60;99523.84;1744717;80;21652;-42
2020/12/25 07:12:47;;;;;;;18.52;13.35;;;;;;;6.61;78.64;99524.70;1706205;82;21145;-45
2020/12/25 07:15:15;;;;;;;21.25;14.90;;;;;;;6.62;78.66;99531.69;1675511;81;21168;-42
2020/12/25 07:17:42;;;;;;;20.40;15.30;;;;;;;6.65;78.65;99531.54;1744534;81;21157;-41
2020/12/25 07:20:10;;;;;;;18.80;14.05;;;;;;;6.68;78.65;99524.73;1743958;81;21162;-42
2020/12/25 07:22:38;;;;;;;20.95;13.45;;;;;;;6.70;78.62;99532.12;1745776;80;21141;-44
2020/12/25 07:25:09;;;;;;;18.95;13.85;;;;;;;6.74;78.57;99535.92;1743145;80;21711;-42
2020/12/25 07:27:37;;;;;;;20.15;13.50;;;;;;;6.74;78.51;99530.63;1703912;82;21127;-48
2020/12/25 07:30:06;;;;;;;18.10;13.25;;;;;;;6.76;78.48;99541.98;1695721;82;21149;-43
2020/12/25 07:32:33;;;;;;;18.07;14.00;;;;;;;6.77;78.50;99545.01;1703028;84;21166;-43
2020/12/25 07:35:06;;;;;;;17.98;14.00;;;;;;;6.78;78.46;99545.38;1681018;83;21620;-42
2020/12/25 07:37:34;;;;;;;18.42;13.20;;;;;;;6.79;78.47;99542.66;1680669;84;21164;-42
2020/12/25 07:40:06;;;;;;;19.77;14.73;;;;;;;6.82;78.44;99551.75;1683186;83;21158;-41
2020/12/25 07:42:34;;;;;;;17.15;13.25;;;;;;;6.85;78.42;99553.36;1679277;83;21179;-43
2020/12/25 07:45:02;;;;;;;17.10;12.73;;;;;;;6.88;78.37;99564.66;1682835;83;21537;-42
2020/12/25 07:47:30;;;;;;;15.58;12.53;;;;;;;6.89;78.38;99565.03;1679035;84;21642;-41
2020/12/25 07:50:00;;;;;;;20.12;13.98;;;;;;;6.92;78.29;99579.91;1683325;83;21641;-41
2020/12/25 07:52:28;;;;;;;18.15;14.05;;;;;;;6.92;78.26;99573.28;1680759;83;21165;-44
2020/12/25 07:54:57;;;;;;;21.68;15.08;;;;;;;6.93;78.20;99579.83;1682097;83;21153;-47
2020/12/25 07:57:25;;;;;;;18.35;14.15;;;;;;;6.94;78.17;99574.89;1677086;83;21161;-43
2020/12/25 07:59:55;;;;;;;17.75;13.25;;;;;;;6.95;78.16;99582.37;1679282;83;21129;-42
2020/12/25 08:02:22;;;;;;;18.32;13.68;;;;;;;6.96;78.12;99592.05;1660125;85;21732;-44
2020/12/25 08:04:50;;;;;;;17.67;13.78;;;;;;;6.98;78.07;99591.50;1680170;83;21193;-43
2020/12/25 08:07:21;;;;;;;17.15;12.58;;;;;;;7.00;78.04;99592.72;1639139;84;21181;-45
2020/12/25 08:09:59;;;;;;;;;;;;;;;7.01;77.98;99597.09;1679123;83;21202;-43
2020/12/25 08:12:27;;;;;;;14.98;12.30;;;;;;;7.02;77.90;99602.77;1678551;85;20480;-44
2020/12/25 08:14:55;;;;;;;15.45;11.50;;;;;;;7.01;77.86;99602.39;1694568;84;21130;-44
2020/12/25 08:17:22;;;;;;;14.70;11.78;;;;;;;7.02;77.81;99600.96;1690406;81;21189;-45
2020/12/25 08:19:51;;;;;;;17.92;11.12;;;;;;;7.03;77.78;99597.83;1727049;81;21129;-44
2020/12/25 08:22:20;;;;;;;16.65;11.90;;;;;;;7.04;77.71;99593.78;1727082;82;21122;-45
2020/12/25 08:24:50;;;;;;;17.42;12.35;;;;;;;7.05;77.70;99595.95;1723661;82;21449;-43
2020/12/25 08:27:19;;;;;;;16.05;12.53;;;;;;;7.04;77.61;99596.44;1733941;81;21157;-43
2020/12/25 08:29:49;;;;;;;17.62;13.05;;;;;;;7.03;77.56;99598.72;1734367;81;21166;-45
2020/12/25 08:32:20;;;;;;;17.35;12.25;;;;;;;7.05;77.54;99597.28;1732172;81;21284;-45
2020/12/25 08:35:09;;;;;;;16.27;13.72;;;;;;;7.06;77.51;99605.64;1730909;82;21635;-44
2020/12/25 08:37:38;;;;;;;16.77;12.63;;;;;;;7.06;77.34;99613.11;1727090;81;21161;-45
2020/12/25 08:40:14;;;;;;;19.60;14.07;;;;;;;7.06;77.34;99613.11;1730434;81;21150;-46
2020/12/25 08:42:42;;;;;;;16.70;12.45;;;;;;;7.06;77.42;99613.59;1731158;81;21299;-44
2020/12/25 08:45:20;;;;;;;17.12;13.08;;;;;;;7.06;77.47;99610.94;1725982;81;22201;-45
2020/12/25 08:48:11;;;;;;;16.80;11.97;;;;;;;7.08;77.42;99606.38;1730559;82;21577;-44
2020/12/25 08:50:40;;;;;;;19.57;14.45;;;;;;;7.09;77.33;99602.80;1728312;81;21495;-44
2020/12/25 08:53:21;;;;;;;16.70;12.15;;;;;;;7.10;77.22;99606.67;1731868;81;21141;-45
2020/12/25 08:58:27;;;;;;;16.48;12.45;;;;;;;7.19;77.35;99613.73;1799988;77;23574;-45
2020/12/25 09:01:02;;;;;;;17.07;13.75;;;;;;;7.17;77.22;99610.31;1776965;78;21161;-45
2020/12/25 09:03:40;;;;;;;17.10;12.10;;;;;;;7.19;77.17;99609.28;1772443;78;21141;-43
2020/12/25 09:06:09;;;;;;;17.73;11.22;;;;;;;7.22;77.16;99612.22;1773032;78;21161;-46
2020/12/25 09:08:37;;;;;;;15.32;10.30;;;;;;;7.24;77.18;99606.36;1773087;78;21567;-46
2020/12/25 09:11:11;;;;;;;13.05;9.85;;;;;;;7.27;77.05;99611.48;1771526;78;21141;-45
2020/12/25 09:13:39;;;;;;;14.20;10.50;;;;;;;7.27;77.05;99611.48;1770496;78;21652;-46
2020/12/25 09:16:08;;;;;;;12.80;9.78;;;;;;;7.29;76.97;99607.80;1771026;78;21138;-45
2020/12/25 09:18:36;;;;;;;12.37;9.40;;;;;;;7.32;76.94;99609.41;1737261;81;21145;-47
2020/12/25 09:21:07;;;;;;;12.13;9.08;;;;;;;7.31;76.82;99615.67;1738753;80;21844;-46
2020/12/25 09:23:35;;;;;;;15.93;8.43;;;;;;;7.32;76.82;99612.06;1706614;82;21603;-46
2020/12/25 09:26:06;;;;;;;9.88;8.75;;;;;;;7.32;76.78;99618.70;1707836;82;21241;-45
2020/12/25 09:28:34;;;;;;;12.88;9.53;;;;;;;7.32;76.75;99621.34;1699887;82;21261;-43
2020/12/25 09:31:04;;;;;;;12.50;9.08;;;;;;;7.32;76.74;99610.26;1696626;82;21312;-44
2020/12/25 09:33:31;;;;;;;11.70;9.58;;;;;;;7.33;76.71;99617.29;1705668;82;21577;-43
2020/12/25 09:35:59;;;;;;;11.00;8.33;;;;;;;7.35;76.67;99619.83;1699059;82;21099;-43
2020/12/25 09:38:27;;;;;;;11.12;9.73;;;;;;;7.37;76.60;99622.77;1695155;84;21594;-43
2020/12/25 09:40:54;;;;;;;14.23;10.35;;;;;;;7.37;76.54;99615.30;1704807;82;21127;-43
2020/12/25 09:43:22;;;;;;;12.15;9.98;;;;;;;7.36;76.42;99614.93;1695620;82;21644;-44
2020/12/25 09:45:49;;;;;;;12.25;10.05;;;;;;;7.35;76.37;99616.70;1698787;82;21143;-43
2020/12/25 09:48:17;;;;;;;14.50;9.65;;;;;;;7.35;76.29;99612.72;1700807;82;21170;-43
2020/12/25 09:50:45;;;;;;;15.48;10.40;;;;;;;7.34;76.33;99613.68;1703163;82;21130;-42
2020/12/25 09:53:13;;;;;;;11.50;9.78;;;;;;;7.40;76.25;99604.98;1703391;83;21136;-44
2020/12/25 09:55:42;;;;;;;11.73;9.80;;;;;;;7.40;76.25;99604.98;1702779;83;21182;-44
2020/12/25 09:58:10;;;;;;;12.80;10.15;;;;;;;7.39;76.34;99600.16;1691211;84;21154;-42
2020/12/25 10:00:38;;;;;;;15.08;11.03;;;;;;;7.43;76.35;99606.12;1688954;83;21170;-43
2020/12/25 10:03:06;;;;;;;13.08;10.40;;;;;;;7.45;76.24;99601.10;1734993;81;21145;-41
2020/12/25 10:05:34;;;;;;;11.90;9.85;;;;;;;7.45;76.24;99601.10;1732930;81;21157;-44
2020/12/25 10:08:01;;;;;;;14.90;11.12;;;;;;;7.48;76.11;99598.73;1742137;81;21142;-42
2020/12/25 10:10:29;;;;;;;12.88;10.08;;;;;;;7.48;75.98;99595.61;1729697;81;21609;-45
2020/12/25 10:12:57;;;;;;;13.68;10.58;;;;;;;7.49;76.07;99599.98;1730830;82;21633;-45
2020/12/25 10:15:25;;;;;;;12.95;10.68;;;;;;;7.53;75.97;99601.97;1745493;81;21110;-45
2020/12/25 10:17:52;;;;;;;10.90;9.15;;;;;;;7.54;75.78;99601.89;1736924;82;21134;-45
2020/12/25 10:20:20;;;;;;;12.78;8.95;;;;;;;7.54;75.84;99593.09;1734930;82;21601;-45
2020/12/25 10:22:47;;;;;;;13.10;9.50;;;;;;;7.54;75.84;99587.78;1731165;82;21562;-44
2020/12/25 10:25:15;;;;;;;11.97;8.45;;;;;;;7.55;75.73;99589.47;1704030;83;21478;-48
2020/12/25 10:27:42;;;;;;;11.45;8.43;;;;;;;7.58;75.54;99584.85;1735105;81;21154;-44
2020/12/25 10:30:10;;;;;;;11.25;9.03;;;;;;;7.59;75.46;99582.56;1741639;82;21178;-43
2020/12/25 10:32:39;;;;;;;13.88;10.75;;;;;;;7.61;75.42;99592.22;1738556;81;21685;-42
2020/12/25 10:35:08;;;;;;;13.05;10.10;;;;;;;7.62;75.41;99589.48;1741329;81;21394;-43
2020/12/25 10:37:37;;;;;;;12.37;8.58;;;;;;;7.62;75.41;99589.48;1732124;82;21462;-43
2020/12/25 10:40:07;;;;;;;11.40;9.23;;;;;;;7.67;75.41;99574.63;1729111;81;21154;-43
2020/12/25 10:42:34;;;;;;;10.55;8.70;;;;;;;7.70;75.35;99585.05;1740737;81;21821;-42
2020/12/25 10:45:02;;;;;;;11.25;8.73;;;;;;;7.73;75.12;99583.52;1736641;81;21166;-42
2020/12/25 10:47:30;;;;;;;12.23;9.23;;;;;;;7.76;75.30;99587.31;1735059;81;21911;-43
2020/12/25 10:49:57;;;;;;;11.95;9.25;;;;;;;7.76;75.30;99587.31;1737301;81;21170;-43
2020/12/25 10:52:25;;;;;;;11.15;8.35;;;;;;;7.77;75.15;99591.21;1739169;81;21158;-42
2020/12/25 10:54:52;;;;;;;12.30;8.28;;;;;;;7.80;75.09;99592.83;1735814;81;21173;-43
2020/12/25 10:57:20;;;;;;;12.43;8.63;;;;;;;7.86;75.03;99596.90;1734103;81;21511;-39
2020/12/25 10:59:50;;;;;;;13.25;8.83;;;;;;;7.90;74.90;99597.10;1736830;80;21528;-44
2020/12/25 11:02:18;;;;;;;10.78;8.05;;;;;;;7.92;74.82;99600.05;1735928;80;21288;-43
2020/12/25 11:04:45;;;;;;;9.63;7.92;;;;;;;7.94;74.73;99603.94;1737645;81;21158;-42
2020/12/25 11:07:13;;;;;;;9.13;6.72;;;;;;;7.96;74.57;99611.31;1739802;80;21137;-44
2020/12/25 11:09:40;;;;;;;10.20;7.55;;;;;;;7.96;74.23;99613.97;1738112;80;21177;-43
2020/12/25 11:12:08;;;;;;;9.95;7.25;;;;;;;7.97;74.25;99623.18;1737433;80;21119;-43
2020/12/25 11:14:36;;;;;;;9.40;7.40;;;;;;;7.98;74.34;99624.88;1735659;80;21278;-42
2020/12/25 11:17:03;;;;;;;9.75;7.85;;;;;;;8.01;74.23;99631.80;1735148;80;21158;-44
2020/12/25 11:19:31;;;;;;;8.48;6.58;;;;;;;8.03;74.17;99636.55;1680381;83;21158;-44
2020/12/25 11:21:58;;;;;;;9.25;7.05;;;;;;;8.03;73.95;99634.73;1709095;83;21142;-46
2020/12/25 11:24:26;;;;;;;9.05;7.30;;;;;;;8.02;73.85;99636.18;1734703;81;21562;-46
2020/12/25 11:26:53;;;;;;;8.58;7.10;;;;;;;7.99;73.82;99627.93;1744870;81;21434;-58
2020/12/25 11:29:21;;;;;;;8.53;7.20;;;;;;;8.01;73.70;99626.04;1741060;81;21110;-44
2020/12/25 11:31:48;;;;;;;9.58;8.08;;;;;;;8.01;73.61;99627.81;1740129;81;21162;-44
2020/12/25 11:34:16;;;;;;;10.32;8.10;;;;;;;8.00;73.50;99624.80;1741713;82;21170;-42
2020/12/25 11:36:45;;;;;;;13.38;10.43;;;;;;;7.94;73.45;99627.36;1738682;81;21154;-45
2020/12/25 11:39:12;;;;;;;12.37;9.55;;;;;;;7.94;73.29;99625.18;1739145;80;21153;-44
2020/12/25 11:41:40;;;;;;;9.23;7.72;;;;;;;7.92;73.05;99634.55;1740386;81;21169;-45
2020/12/25 11:44:07;;;;;;;8.68;6.90;;;;;;;7.91;73.09;99635.96;1740439;81;21158;-44